Time;durP1;ratioP1;P1;durP2;ratioP2;P2;SDS_P1;SDS_P2;PMS_P1;PMS_P2;Temp;Humidity;BMP_temperature;BMP_pressure;BME280_temperature;BME280_humidity;BME280_pressure;Samples;Min_cycle;Max_cycle;Signal;HPM_P1;HPM_P2
2022/03/09 00:01:05;;;;;;;4.20;2.55;;;;;;;;;;1712151;83;21060;-69
2022/03/09 00:03:32;;;;;;;4.28;2.42;;;;;;;;;;1711898;82;21068;-69
2022/03/09 00:05:59;;;;;;;3.72;2.08;;;;;;;;;;1712146;84;21037;-69
2022/03/09 00:08:26;;;;;;;3.77;2.58;;;;;;;;;;1711939;84;21556;-69
2022/03/09 00:10:52;;;;;;;3.92;2.62;;;;;;;;;;1712116;84;21015;-69
2022/03/09 00:13:18;;;;;;;3.37;2.50;;;;;;;;;;1712249;83;21080;-69
2022/03/09 00:15:45;;;;;;;3.60;2.33;;;;;;;;;;1711883;83;21123;-69
2022/03/09 00:18:11;;;;;;;3.62;2.37;;;;;;;;;;1712161;84;21572;-69
2022/03/09 00:20:37;;;;;;;3.65;2.22;;;;;;;;;;1711880;84;21068;-69
2022/03/09 00:23:04;;;;;;;3.83;2.40;;;;;;;;;;1711937;83;21029;-69
2022/03/09 00:25:31;;;;;;;3.27;2.22;;;;;;;;;;1712184;84;21041;-69
2022/03/09 00:30:15;;;;;;;3.87;2.37;;;;;;;;;;1802005;79;22804;-69
2022/03/09 00:32:43;;;;;;;4.53;2.67;;;;;;;;;;1761951;81;21085;-69
2022/03/09 00:35:09;;;;;;;6.03;2.90;;;;;;;;;;1761825;81;21606;-69
2022/03/09 00:37:36;;;;;;;3.85;2.77;;;;;;;;;;1761891;81;21123;-69
2022/03/09 00:40:03;;;;;;;4.72;2.50;;;;;;;;;;1761610;81;21135;-69
2022/03/09 00:42:29;;;;;;;3.52;2.62;;;;;;;;;;1761867;81;21049;-69
2022/03/09 00:44:56;;;;;;;4.65;3.08;;;;;;;;;;1742612;81;21541;-69
2022/03/09 00:47:23;;;;;;;3.98;2.42;;;;;;;;;;1761794;81;21021;-69
2022/03/09 00:49:51;;;;;;;3.75;2.85;;;;;;;;;;1761588;81;21040;-69
2022/03/09 00:52:17;;;;;;;4.50;2.60;;;;;;;;;;1761920;81;20993;-69
2022/03/09 00:54:44;;;;;;;5.60;2.60;;;;;;;;;;1761555;81;21068;-67
2022/03/09 00:57:10;;;;;;;3.92;2.70;;;;;;;;;;1761857;81;21524;-68
2022/03/09 00:59:36;;;;;;;4.03;2.25;;;;;;;;;;1761862;81;21041;-68
2022/03/09 01:02:03;;;;;;;4.05;2.50;;;;;;;;;;1761765;81;21032;-69
2022/03/09 01:04:29;;;;;;;3.55;2.22;;;;;;;;;;1731729;81;21120;-69
2022/03/09 01:06:57;;;;;;;3.47;2.25;;;;;;;;;;1730087;82;21038;-69
2022/03/09 01:09:23;;;;;;;5.65;2.72;;;;;;;;;;1729685;83;21116;-69
2022/03/09 01:11:50;;;;;;;4.67;2.58;;;;;;;;;;1729964;83;21072;-69
2022/03/09 01:14:16;;;;;;;4.28;2.60;;;;;;;;;;1730023;83;21056;-68
2022/03/09 01:16:43;;;;;;;3.52;2.27;;;;;;;;;;1730055;82;21074;-69
2022/03/09 01:19:11;;;;;;;4.42;2.70;;;;;;;;;;1729727;83;21097;-68
2022/03/09 01:21:39;;;;;;;4.95;2.98;;;;;;;;;;1730057;82;21072;-69
2022/03/09 01:24:06;;;;;;;4.05;2.62;;;;;;;;;;1729802;82;21080;-69
2022/03/09 01:26:33;;;;;;;5.62;2.87;;;;;;;;;;1730034;82;21029;-68
2022/03/09 01:28:59;;;;;;;4.72;2.50;;;;;;;;;;1725166;83;21096;-69
2022/03/09 01:31:26;;;;;;;4.65;2.55;;;;;;;;;;1717230;83;21072;-68
2022/03/09 01:33:52;;;;;;;5.05;2.65;;;;;;;;;;1717362;83;21085;-69
2022/03/09 01:36:19;;;;;;;5.25;3.40;;;;;;;;;;1717470;83;21033;-69
2022/03/09 01:38:46;;;;;;;4.45;2.65;;;;;;;;;;1717203;83;21146;-69
2022/03/09 01:41:13;;;;;;;5.28;3.05;;;;;;;;;;1717230;83;21037;-68
2022/03/09 01:43:40;;;;;;;3.30;2.22;;;;;;;;;;1716777;83;21073;-68
2022/03/09 01:46:07;;;;;;;4.58;2.50;;;;;;;;;;1716832;83;21050;-69
2022/03/09 01:48:34;;;;;;;3.95;2.60;;;;;;;;;;1716603;83;21084;-69
2022/03/09 01:51:00;;;;;;;3.47;2.20;;;;;;;;;;1716948;83;21021;-69
2022/03/09 01:53:26;;;;;;;3.83;2.62;;;;;;;;;;1716570;83;21041;-69
2022/03/09 01:55:53;;;;;;;4.08;2.90;;;;;;;;;;1717001;83;21025;-69
2022/03/09 01:58:21;;;;;;;5.67;3.17;;;;;;;;;;1717018;83;21044;-70
2022/03/09 02:03:29;;;;;;;4.78;2.60;;;;;;;;;;1752782;78;74467;-70
2022/03/09 02:05:56;;;;;;;3.00;2.33;;;;;;;;;;1825578;78;21488;-70
2022/03/09 02:11:10;;;;;;;5.33;3.00;;;;;;;;;;1845748;78;21056;-70
2022/03/09 02:13:38;;;;;;;4.72;3.15;;;;;;;;;;1845434;78;21077;-72
2022/03/09 02:16:05;;;;;;;3.45;2.58;;;;;;;;;;1845936;78;21527;-70
2022/03/09 02:18:32;;;;;;;6.15;2.90;;;;;;;;;;1845983;78;20974;-70
2022/03/09 02:21:01;;;;;;;3.62;2.25;;;;;;;;;;1845633;78;21017;-70
2022/03/09 02:23:28;;;;;;;5.05;3.12;;;;;;;;;;1845838;78;21009;-71
2022/03/09 02:25:54;;;;;;;6.30;3.02;;;;;;;;;;1845795;78;21012;-71
2022/03/09 02:28:21;;;;;;;5.28;2.90;;;;;;;;;;1845684;78;21044;-72
2022/03/09 02:30:51;;;;;;;8.15;3.15;;;;;;;;;;1845375;78;21076;-71
2022/03/09 02:33:18;;;;;;;5.87;3.60;;;;;;;;;;1845633;77;21107;-72
2022/03/09 02:35:45;;;;;;;5.55;2.77;;;;;;;;;;1845433;78;22035;-71
2022/03/09 02:38:12;;;;;;;4.28;2.35;;;;;;;;;;1845876;78;21051;-70
2022/03/09 02:40:38;;;;;;;3.95;2.45;;;;;;;;;;1845727;78;21023;-71
2022/03/09 02:43:04;;;;;;;3.50;2.55;;;;;;;;;;1846090;78;20969;-71
2022/03/09 02:45:31;;;;;;;4.53;2.70;;;;;;;;;;1845778;78;20946;-72
2022/03/09 02:47:57;;;;;;;4.45;2.87;;;;;;;;;;1845817;78;21515;-71
2022/03/09 02:50:24;;;;;;;5.65;3.22;;;;;;;;;;1845546;78;21602;-71
2022/03/09 02:52:50;;;;;;;5.20;2.67;;;;;;;;;;1845822;78;20997;-71
2022/03/09 02:55:17;;;;;;;5.53;2.77;;;;;;;;;;1845804;78;21090;-72
2022/03/09 02:57:45;;;;;;;5.00;2.87;;;;;;;;;;1845698;78;21051;-71
2022/03/09 03:00:11;;;;;;;4.37;2.90;;;;;;;;;;1845727;78;21395;-72
2022/03/09 03:02:38;;;;;;;4.92;2.92;;;;;;;;;;1845812;78;21088;-71
2022/03/09 03:05:05;;;;;;;5.10;3.02;;;;;;;;;;1847599;77;21083;-71
2022/03/09 03:07:31;;;;;;;5.92;2.87;;;;;;;;;;1849109;77;21013;-72
2022/03/09 03:09:58;;;;;;;4.75;2.65;;;;;;;;;;1848502;77;21005;-71
2022/03/09 03:12:25;;;;;;;3.30;2.60;;;;;;;;;;1849181;77;21055;-71
2022/03/09 03:14:51;;;;;;;4.80;2.87;;;;;;;;;;1848856;77;21327;-70
2022/03/09 03:17:18;;;;;;;4.83;2.75;;;;;;;;;;1849061;77;20985;-71
2022/03/09 03:19:47;;;;;;;4.53;3.10;;;;;;;;;;1848740;77;21500;-70
2022/03/09 03:22:13;;;;;;;4.40;3.00;;;;;;;;;;1849169;77;21064;-70
2022/03/09 03:24:41;;;;;;;4.45;3.25;;;;;;;;;;1848662;77;21032;-71
2022/03/09 03:27:09;;;;;;;5.65;2.65;;;;;;;;;;1848721;77;21048;-71
2022/03/09 03:29:36;;;;;;;5.60;3.17;;;;;;;;;;1849239;77;21056;-71
2022/03/09 03:32:03;;;;;;;4.97;2.80;;;;;;;;;;1848892;77;20981;-71
2022/03/09 03:34:30;;;;;;;3.75;2.65;;;;;;;;;;1849157;77;21040;-70
2022/03/09 03:36:56;;;;;;;4.00;2.85;;;;;;;;;;1849090;77;21063;-71
2022/03/09 03:39:24;;;;;;;5.08;3.55;;;;;;;;;;1849256;77;21468;-70
2022/03/09 03:41:51;;;;;;;5.83;2.95;;;;;;;;;;1849002;77;21052;-72
2022/03/09 03:44:18;;;;;;;5.72;3.60;;;;;;;;;;1849053;77;21009;-70
2022/03/09 03:46:45;;;;;;;8.83;3.65;;;;;;;;;;1849086;77;21009;-70
2022/03/09 03:49:11;;;;;;;5.92;3.40;;;;;;;;;;1848873;77;21048;-71
2022/03/09 03:51:39;;;;;;;8.00;4.05;;;;;;;;;;1848761;77;21017;-71
2022/03/09 03:54:07;;;;;;;5.97;3.10;;;;;;;;;;1848922;77;21013;-71
2022/03/09 03:56:33;;;;;;;6.50;3.80;;;;;;;;;;1848981;77;21020;-71
2022/03/09 03:59:01;;;;;;;7.37;3.83;;;;;;;;;;1848849;77;21048;-71
2022/03/09 04:01:27;;;;;;;5.60;3.50;;;;;;;;;;1848978;77;20997;-70
2022/03/09 04:03:54;;;;;;;4.45;3.02;;;;;;;;;;1848483;77;21083;-71
2022/03/09 04:06:20;;;;;;;8.33;4.10;;;;;;;;;;1846041;78;20992;-71
2022/03/09 04:08:47;;;;;;;5.90;3.37;;;;;;;;;;1845941;78;20997;-70
2022/03/09 04:11:14;;;;;;;6.40;3.20;;;;;;;;;;1845674;78;21087;-71
2022/03/09 04:13:42;;;;;;;4.92;3.10;;;;;;;;;;1845943;78;21631;-70
2022/03/09 04:16:09;;;;;;;6.28;3.58;;;;;;;;;;1845937;78;20961;-72
2022/03/09 04:18:36;;;;;;;8.25;4.12;;;;;;;;;;1845834;78;21009;-70
2022/03/09 04:21:03;;;;;;;5.47;3.87;;;;;;;;;;1845997;78;21028;-70
2022/03/09 04:23:30;;;;;;;7.03;3.65;;;;;;;;;;1845987;78;21160;-70
2022/03/09 04:25:57;;;;;;;6.37;3.47;;;;;;;;;;1846086;78;21021;-71
2022/03/09 04:28:23;;;;;;;7.37;4.08;;;;;;;;;;1846098;78;21422;-72
2022/03/09 04:30:51;;;;;;;5.53;3.80;;;;;;;;;;1845865;78;21550;-71
2022/03/09 04:33:17;;;;;;;7.50;4.30;;;;;;;;;;1845599;78;21564;-72
2022/03/09 04:35:44;;;;;;;6.15;3.55;;;;;;;;;;1845807;78;20997;-71
2022/03/09 04:38:11;;;;;;;5.60;3.42;;;;;;;;;;1845461;78;21044;-71
2022/03/09 04:40:38;;;;;;;5.90;3.60;;;;;;;;;;1845839;78;21044;-71
2022/03/09 04:43:04;;;;;;;7.30;4.33;;;;;;;;;;1846220;78;20961;-71
2022/03/09 04:45:31;;;;;;;5.95;3.17;;;;;;;;;;1846017;78;21052;-72
2022/03/09 04:47:58;;;;;;;6.35;3.47;;;;;;;;;;1845898;78;21087;-70
2022/03/09 04:50:25;;;;;;;6.22;3.70;;;;;;;;;;1845999;78;21489;-70
2022/03/09 04:52:51;;;;;;;6.22;3.45;;;;;;;;;;1846053;78;20973;-70
2022/03/09 04:55:18;;;;;;;4.75;3.10;;;;;;;;;;1845900;78;21040;-71
2022/03/09 04:57:44;;;;;;;5.87;3.10;;;;;;;;;;1846142;78;21133;-71
2022/03/09 05:00:11;;;;;;;4.15;2.72;;;;;;;;;;1846209;78;21005;-71
2022/03/09 05:02:39;;;;;;;6.00;3.17;;;;;;;;;;1845944;78;21013;-71
2022/03/09 05:05:06;;;;;;;2.95;2.33;;;;;;;;;;1845735;77;21096;-72
2022/03/09 05:07:33;;;;;;;4.50;2.87;;;;;;;;;;1845868;78;21009;-71
2022/03/09 05:10:00;;;;;;;4.50;2.80;;;;;;;;;;1845677;78;21044;-70
2022/03/09 05:12:28;;;;;;;6.08;3.30;;;;;;;;;;1845597;78;21005;-70
2022/03/09 05:14:54;;;;;;;4.25;2.58;;;;;;;;;;1845740;78;21001;-70
2022/03/09 05:17:21;;;;;;;5.08;3.25;;;;;;;;;;1845666;78;21044;-71
2022/03/09 05:19:48;;;;;;;4.55;2.77;;;;;;;;;;1845742;78;21016;-72
2022/03/09 05:22:14;;;;;;;6.17;3.30;;;;;;;;;;1845814;78;21540;-71
2022/03/09 05:24:41;;;;;;;5.30;3.22;;;;;;;;;;1845540;78;21491;-71
2022/03/09 05:27:07;;;;;;;4.60;2.90;;;;;;;;;;1845690;78;21028;-71
2022/03/09 05:29:34;;;;;;;5.15;3.20;;;;;;;;;;1845730;78;21025;-71
2022/03/09 05:32:01;;;;;;;5.65;3.12;;;;;;;;;;1845815;78;21048;-71
2022/03/09 05:34:27;;;;;;;4.85;2.90;;;;;;;;;;1845841;78;21449;-71
2022/03/09 05:36:53;;;;;;;5.67;3.02;;;;;;;;;;1846032;78;21038;-71
2022/03/09 05:39:20;;;;;;;9.13;3.55;;;;;;;;;;1845571;78;21037;-72
2022/03/09 05:41:47;;;;;;;5.75;2.85;;;;;;;;;;1845779;78;21472;-71
2022/03/09 05:44:14;;;;;;;4.80;3.20;;;;;;;;;;1845791;78;21594;-71
2022/03/09 05:46:41;;;;;;;5.87;3.20;;;;;;;;;;1845783;78;21539;-71
2022/03/09 05:49:07;;;;;;;5.75;2.60;;;;;;;;;;1845863;78;21108;-71
2022/03/09 05:51:34;;;;;;;4.67;2.55;;;;;;;;;;1845648;78;21529;-71
2022/03/09 05:54:01;;;;;;;4.35;2.65;;;;;;;;;;1845505;78;21536;-71
2022/03/09 05:56:27;;;;;;;4.65;2.72;;;;;;;;;;1845692;78;21048;-71
2022/03/09 05:58:53;;;;;;;5.62;3.17;;;;;;;;;;1845788;78;21001;-71
2022/03/09 06:01:21;;;;;;;4.40;2.72;;;;;;;;;;1845598;78;21013;-71
2022/03/09 06:03:48;;;;;;;3.87;2.77;;;;;;;;;;1845590;77;21131;-70
2022/03/09 06:06:14;;;;;;;6.45;3.70;;;;;;;;;;1845779;78;21017;-71
2022/03/09 06:08:40;;;;;;;7.95;4.08;;;;;;;;;;1845815;78;21018;-70
2022/03/09 06:11:08;;;;;;;4.65;3.40;;;;;;;;;;1845528;78;21024;-71
2022/03/09 06:13:35;;;;;;;5.53;3.12;;;;;;;;;;1846019;78;20989;-71
2022/03/09 06:16:01;;;;;;;8.85;4.47;;;;;;;;;;1845564;78;21029;-71
2022/03/09 06:18:28;;;;;;;4.37;2.70;;;;;;;;;;1846072;78;21045;-71
2022/03/09 06:20:55;;;;;;;5.10;3.17;;;;;;;;;;1845515;78;21504;-71
2022/03/09 06:23:22;;;;;;;9.78;4.25;;;;;;;;;;1845648;78;21571;-71
2022/03/09 06:25:48;;;;;;;4.78;3.20;;;;;;;;;;1845899;78;20974;-71
2022/03/09 06:28:15;;;;;;;7.20;3.60;;;;;;;;;;1845873;78;20970;-71
2022/03/09 06:30:42;;;;;;;4.78;2.87;;;;;;;;;;1845681;78;21091;-71
2022/03/09 06:33:10;;;;;;;7.03;3.80;;;;;;;;;;1845520;78;21048;-71
2022/03/09 06:35:37;;;;;;;7.83;4.20;;;;;;;;;;1845849;78;20985;-70
2022/03/09 06:38:04;;;;;;;6.45;3.55;;;;;;;;;;1845679;78;21041;-71
2022/03/09 06:40:31;;;;;;;5.65;3.35;;;;;;;;;;1815741;78;21044;-71
2022/03/09 06:43:00;;;;;;;5.75;3.47;;;;;;;;;;1845657;78;21040;-71
2022/03/09 06:45:27;;;;;;;5.20;3.15;;;;;;;;;;1845419;78;21017;-71
2022/03/09 06:47:54;;;;;;;5.87;3.60;;;;;;;;;;1845682;78;20969;-71
2022/03/09 06:50:21;;;;;;;5.37;3.40;;;;;;;;;;1845956;78;20993;-70
2022/03/09 06:52:48;;;;;;;8.05;3.92;;;;;;;;;;1845747;78;21025;-70
2022/03/09 06:55:14;;;;;;;6.95;4.10;;;;;;;;;;1845728;78;21052;-71
2022/03/09 06:57:40;;;;;;;6.97;3.83;;;;;;;;;;1845839;78;20977;-70
2022/03/09 07:00:07;;;;;;;6.85;3.98;;;;;;;;;;1845328;78;21485;-71
2022/03/09 07:02:34;;;;;;;7.28;3.70;;;;;;;;;;1845718;78;21499;-71
2022/03/09 07:05:01;;;;;;;7.85;4.15;;;;;;;;;;1846115;77;21084;-71
2022/03/09 07:07:28;;;;;;;5.30;3.75;;;;;;;;;;1848864;77;21087;-72
2022/03/09 07:09:54;;;;;;;5.65;3.65;;;;;;;;;;1848833;77;21020;-71
2022/03/09 07:12:21;;;;;;;5.25;3.10;;;;;;;;;;1849043;77;20997;-70
2022/03/09 07:14:48;;;;;;;7.17;4.37;;;;;;;;;;1848981;77;20996;-70
2022/03/09 07:17:15;;;;;;;7.53;4.17;;;;;;;;;;1848495;77;21064;-68
2022/03/09 07:19:42;;;;;;;6.45;3.60;;;;;;;;;;1848779;77;21095;-69
2022/03/09 07:22:08;;;;;;;7.40;4.17;;;;;;;;;;1848490;77;21049;-70
2022/03/09 07:24:35;;;;;;;5.35;3.45;;;;;;;;;;1848987;77;21053;-71
2022/03/09 07:27:03;;;;;;;7.83;4.20;;;;;;;;;;1848977;77;21535;-71
2022/03/09 07:29:30;;;;;;;6.65;4.20;;;;;;;;;;1849451;77;21102;-70
2022/03/09 07:31:56;;;;;;;6.12;3.70;;;;;;;;;;1849396;77;21551;-71
2022/03/09 07:34:23;;;;;;;9.73;4.22;;;;;;;;;;1848828;77;21008;-71
2022/03/09 07:36:50;;;;;;;6.20;3.62;;;;;;;;;;1848951;77;21044;-71
2022/03/09 07:39:19;;;;;;;6.00;3.55;;;;;;;;;;1848709;77;21009;-70
2022/03/09 07:41:46;;;;;;;6.78;3.90;;;;;;;;;;1849008;77;20969;-71
2022/03/09 07:44:15;;;;;;;6.75;3.87;;;;;;;;;;1848747;77;21492;-71
2022/03/09 07:46:44;;;;;;;7.47;3.92;;;;;;;;;;1848957;77;21076;-72
2022/03/09 07:49:12;;;;;;;7.78;4.33;;;;;;;;;;1848993;77;21063;-71
2022/03/09 07:51:39;;;;;;;7.28;4.33;;;;;;;;;;1849067;77;20966;-71
2022/03/09 07:54:06;;;;;;;8.30;4.50;;;;;;;;;;1848989;77;21033;-71
2022/03/09 07:56:32;;;;;;;7.35;3.67;;;;;;;;;;1849095;77;20973;-74
2022/03/09 08:01:52;;;;;;;7.03;3.55;;;;;;;;;;1732674;79;21203;-70
2022/03/09 08:04:20;;;;;;;6.33;3.72;;;;;;;;;;1741939;82;21547;-70
2022/03/09 08:06:48;;;;;;;7.55;4.62;;;;;;;;;;1741597;82;21064;-70
2022/03/09 08:09:16;;;;;;;7.58;4.10;;;;;;;;;;1741248;82;21088;-69
2022/03/09 08:11:43;;;;;;;8.40;4.72;;;;;;;;;;1741620;82;21085;-69
2022/03/09 08:14:10;;;;;;;8.80;4.62;;;;;;;;;;1741623;82;21085;-69
2022/03/09 08:16:36;;;;;;;6.50;3.87;;;;;;;;;;1741691;82;21037;-69
2022/03/09 08:19:03;;;;;;;8.35;4.78;;;;;;;;;;1741398;82;21073;-70
2022/03/09 08:21:29;;;;;;;8.15;4.08;;;;;;;;;;1741561;82;21570;-70
2022/03/09 08:23:55;;;;;;;7.87;4.40;;;;;;;;;;1741584;82;21045;-70
2022/03/09 08:29:14;;;;;;;6.95;3.95;;;;;;;;;;1661881;79;21176;-69
2022/03/09 08:31:41;;;;;;;9.05;4.53;;;;;;;;;;1644851;87;21046;-68
2022/03/09 08:34:08;;;;;;;7.12;4.10;;;;;;;;;;1644767;87;21034;-70
2022/03/09 08:36:35;;;;;;;6.87;4.22;;;;;;;;;;1644846;87;21074;-69
2022/03/09 08:39:01;;;;;;;10.70;4.58;;;;;;;;;;1644638;87;21149;-68
2022/03/09 08:41:30;;;;;;;6.85;4.37;;;;;;;;;;1644941;87;21069;-67
2022/03/09 08:43:57;;;;;;;8.18;4.65;;;;;;;;;;1644708;87;21122;-68
2022/03/09 08:46:25;;;;;;;8.68;4.67;;;;;;;;;;1645040;87;21102;-68
2022/03/09 08:48:51;;;;;;;8.28;4.22;;;;;;;;;;1644783;87;21054;-68
2022/03/09 08:51:20;;;;;;;7.15;4.03;;;;;;;;;;1644967;87;21034;-69
2022/03/09 08:53:46;;;;;;;8.88;4.78;;;;;;;;;;1644767;87;21106;-70
2022/03/09 08:56:12;;;;;;;9.48;4.35;;;;;;;;;;1644985;87;21071;-69
2022/03/09 08:58:39;;;;;;;10.05;5.00;;;;;;;;;;1644865;87;21038;-69
2022/03/09 09:01:06;;;;;;;11.33;5.05;;;;;;;;;;1644745;87;21149;-69
2022/03/09 09:03:33;;;;;;;9.70;5.05;;;;;;;;;;1644893;87;21070;-69
2022/03/09 09:06:01;;;;;;;6.58;3.40;;;;;;;;;;1644759;87;21106;-69
2022/03/09 09:08:28;;;;;;;5.55;3.55;;;;;;;;;;1644775;87;21057;-69
2022/03/09 09:10:55;;;;;;;9.30;4.72;;;;;;;;;;1644963;87;21062;-70
2022/03/09 09:13:23;;;;;;;10.60;5.37;;;;;;;;;;1644868;87;21094;-69
2022/03/09 09:15:49;;;;;;;7.60;4.17;;;;;;;;;;1644784;87;21454;-69
2022/03/09 09:18:16;;;;;;;6.58;3.55;;;;;;;;;;1644885;87;21058;-69
2022/03/09 09:20:44;;;;;;;6.80;3.80;;;;;;;;;;1644701;87;21058;-69
2022/03/09 09:23:11;;;;;;;8.18;4.37;;;;;;;;;;1644846;87;21129;-69
2022/03/09 09:25:37;;;;;;;9.18;5.20;;;;;;;;;;1644993;86;21061;-69
2022/03/09 09:28:04;;;;;;;7.75;4.45;;;;;;;;;;1653326;86;21108;-69
2022/03/09 09:30:31;;;;;;;6.47;4.10;;;;;;;;;;1726707;83;21119;-69
2022/03/09 09:32:57;;;;;;;8.25;4.85;;;;;;;;;;1726997;83;21571;-69
2022/03/09 09:35:24;;;;;;;6.87;3.62;;;;;;;;;;1726999;83;21048;-68
2022/03/09 09:37:51;;;;;;;6.25;4.05;;;;;;;;;;1727121;83;21072;-68
2022/03/09 09:40:17;;;;;;;7.17;4.15;;;;;;;;;;1727174;83;21064;-69
2022/03/09 09:42:43;;;;;;;8.35;4.70;;;;;;;;;;1727148;83;21053;-68
2022/03/09 09:45:11;;;;;;;7.92;4.40;;;;;;;;;;1726967;83;21096;-68
2022/03/09 09:47:37;;;;;;;7.92;4.22;;;;;;;;;;1726945;83;21082;-68
2022/03/09 09:50:06;;;;;;;8.53;4.37;;;;;;;;;;1726990;83;21029;-68
2022/03/09 09:52:33;;;;;;;6.53;3.90;;;;;;;;;;1727002;83;21084;-68
2022/03/09 09:55:00;;;;;;;7.33;4.53;;;;;;;;;;1726945;83;21041;-68
2022/03/09 09:57:27;;;;;;;7.55;4.33;;;;;;;;;;1727047;83;21588;-68
2022/03/09 09:59:54;;;;;;;5.70;3.92;;;;;;;;;;1726912;83;21516;-68
2022/03/09 10:02:20;;;;;;;6.58;4.37;;;;;;;;;;1726962;83;21013;-68
2022/03/09 10:04:47;;;;;;;10.82;5.20;;;;;;;;;;1727083;83;21080;-68
2022/03/09 10:07:14;;;;;;;7.92;4.70;;;;;;;;;;1726843;83;21040;-68
2022/03/09 10:09:41;;;;;;;8.48;4.30;;;;;;;;;;1726991;83;21079;-68
2022/03/09 10:12:08;;;;;;;9.90;4.25;;;;;;;;;;1726936;83;21540;-68
2022/03/09 10:14:50;;;;;;;8.58;5.10;;;;;;;;;;1726850;83;21509;-68
2022/03/09 10:17:17;;;;;;;8.35;4.85;;;;;;;;;;1727133;83;21021;-68
2022/03/09 10:19:45;;;;;;;6.83;4.22;;;;;;;;;;1726913;83;21040;-68
2022/03/09 10:22:25;;;;;;;8.28;4.42;;;;;;;;;;1726821;83;21057;-69
2022/03/09 10:24:53;;;;;;;8.45;4.72;;;;;;;;;;1727078;83;21088;-70
2022/03/09 10:27:39;;;;;;;5.17;3.60;;;;;;;;;;1726974;82;21571;-69
2022/03/09 10:30:13;;;;;;;5.78;3.95;;;;;;;;;;1729146;83;21080;-69
2022/03/09 10:32:43;;;;;;;6.00;3.67;;;;;;;;;;1729995;83;21048;-69
2022/03/09 10:35:11;;;;;;;7.72;4.58;;;;;;;;;;1729703;83;21116;-69
2022/03/09 10:37:38;;;;;;;6.78;4.08;;;;;;;;;;1709326;83;21037;-69
2022/03/09 10:40:14;;;;;;;6.25;3.70;;;;;;;;;;1729741;83;21523;-69
2022/03/09 10:42:41;;;;;;;5.67;3.75;;;;;;;;;;1729766;83;21029;-69
2022/03/09 10:45:07;;;;;;;6.85;3.62;;;;;;;;;;1729730;83;21524;-69
2022/03/09 10:47:42;;;;;;;8.65;3.80;;;;;;;;;;1729843;83;21103;-69
2022/03/09 10:50:21;;;;;;;6.33;3.80;;;;;;;;;;1729095;83;21053;-69
2022/03/09 10:52:55;;;;;;;6.80;4.15;;;;;;;;;;1729731;83;21052;-68
2022/03/09 10:55:30;;;;;;;7.20;3.47;;;;;;;;;;1729751;83;21091;-68
2022/03/09 10:58:09;;;;;;;6.42;3.70;;;;;;;;;;1729654;83;21588;-68
2022/03/09 11:00:40;;;;;;;6.65;3.85;;;;;;;;;;1729898;83;21127;-69
2022/03/09 11:03:08;;;;;;;4.90;3.20;;;;;;;;;;1729647;83;21116;-68
2022/03/09 11:05:35;;;;;;;6.97;4.40;;;;;;;;;;1729867;83;21048;-68
2022/03/09 11:08:03;;;;;;;6.22;3.87;;;;;;;;;;1729625;83;21033;-68
2022/03/09 11:10:30;;;;;;;4.97;3.30;;;;;;;;;;1729806;83;21087;-68
2022/03/09 11:12:57;;;;;;;5.33;3.35;;;;;;;;;;1729947;83;21029;-68
2022/03/09 11:15:24;;;;;;;5.47;3.35;;;;;;;;;;1729550;81;21064;-68
2022/03/09 11:17:50;;;;;;;5.92;3.72;;;;;;;;;;1729996;83;21512;-68
2022/03/09 11:20:16;;;;;;;7.10;4.17;;;;;;;;;;1729855;83;21048;-68
2022/03/09 11:22:44;;;;;;;6.97;4.08;;;;;;;;;;1729799;83;21076;-68
2022/03/09 11:25:11;;;;;;;5.67;3.37;;;;;;;;;;1729576;83;21080;-68
2022/03/09 11:27:41;;;;;;;6.85;4.00;;;;;;;;;;1709198;83;21120;-68
2022/03/09 11:30:21;;;;;;;4.92;3.42;;;;;;;;;;1727037;82;21123;-69
2022/03/09 11:32:49;;;;;;;6.78;4.00;;;;;;;;;;1727031;83;21071;-68
2022/03/09 11:35:31;;;;;;;5.50;3.55;;;;;;;;;;1726618;83;21072;-68
2022/03/09 11:37:58;;;;;;;4.62;3.35;;;;;;;;;;1726860;83;21076;-69
2022/03/09 11:40:25;;;;;;;6.03;3.35;;;;;;;;;;1726490;83;22041;-69
2022/03/09 11:42:51;;;;;;;6.00;3.70;;;;;;;;;;1726976;83;21020;-69
2022/03/09 11:45:27;;;;;;;5.12;3.40;;;;;;;;;;1726767;83;21068;-69
2022/03/09 11:47:58;;;;;;;4.90;3.40;;;;;;;;;;1726687;82;21132;-69
2022/03/09 11:50:25;;;;;;;7.62;4.08;;;;;;;;;;1726935;83;21100;-68
2022/03/09 11:53:04;;;;;;;5.12;3.50;;;;;;;;;;1726816;83;21044;-68
2022/03/09 11:55:32;;;;;;;6.33;3.52;;;;;;;;;;1726638;83;21567;-68
2022/03/09 11:58:00;;;;;;;7.97;4.22;;;;;;;;;;1726915;83;21041;-70
2022/03/09 12:00:26;;;;;;;7.35;4.55;;;;;;;;;;1726910;83;21092;-69
2022/03/09 12:02:55;;;;;;;6.58;4.00;;;;;;;;;;1726699;83;21084;-70
2022/03/09 12:05:26;;;;;;;5.55;3.55;;;;;;;;;;1726793;83;21091;-69
2022/03/09 12:07:53;;;;;;;6.85;4.22;;;;;;;;;;1726787;83;21052;-69
2022/03/09 12:10:24;;;;;;;5.83;3.10;;;;;;;;;;1726440;83;21663;-69
2022/03/09 12:13:10;;;;;;;5.12;3.27;;;;;;;;;;1723963;82;21083;-69
2022/03/09 12:15:57;;;;;;;5.58;3.40;;;;;;;;;;1726667;83;21598;-69
2022/03/09 12:18:37;;;;;;;4.80;2.62;;;;;;;;;;1726866;83;21536;-69
2022/03/09 12:21:05;;;;;;;7.15;3.00;;;;;;;;;;1726520;83;21076;-68
2022/03/09 12:23:31;;;;;;;5.05;3.02;;;;;;;;;;1726973;83;21039;-68
2022/03/09 12:25:58;;;;;;;8.33;3.22;;;;;;;;;;1726639;83;21088;-68
2022/03/09 12:28:31;;;;;;;8.00;4.20;;;;;;;;;;1726538;82;21095;-69
2022/03/09 12:31:11;;;;;;;6.50;4.00;;;;;;;;;;1727208;83;21041;-69
2022/03/09 12:33:39;;;;;;;7.10;4.50;;;;;;;;;;1726566;83;21539;-69
2022/03/09 12:36:10;;;;;;;5.72;3.95;;;;;;;;;;1726838;83;21049;-69
2022/03/09 12:38:38;;;;;;;6.95;4.10;;;;;;;;;;1726612;83;21049;-69
2022/03/09 12:41:05;;;;;;;5.35;3.75;;;;;;;;;;1726917;83;21060;-68
2022/03/09 12:43:47;;;;;;;6.45;4.60;;;;;;;;;;1726950;83;21025;-69
2022/03/09 12:47:17;;;;;;;5.12;3.90;;;;;;;;;;1819971;79;22704;-68
2022/03/09 12:49:44;;;;;;;6.67;3.90;;;;;;;;;;1793229;80;21079;-68
2022/03/09 12:52:13;;;;;;;5.50;3.77;;;;;;;;;;1762326;80;21025;-68
2022/03/09 12:54:43;;;;;;;4.70;3.15;;;;;;;;;;1793182;80;21028;-68
2022/03/09 12:57:17;;;;;;;5.85;3.62;;;;;;;;;;1793386;80;21031;-69
2022/03/09 12:59:45;;;;;;;6.67;3.85;;;;;;;;;;1793123;80;21094;-69
2022/03/09 13:02:12;;;;;;;6.10;4.00;;;;;;;;;;1791190;80;21080;-70
2022/03/09 13:04:39;;;;;;;4.55;2.90;;;;;;;;;;1793114;80;21074;-70
2022/03/09 13:07:10;;;;;;;6.03;3.47;;;;;;;;;;1792784;80;21068;-70
2022/03/09 13:09:36;;;;;;;6.90;3.92;;;;;;;;;;1792979;80;21047;-68
2022/03/09 13:12:09;;;;;;;6.90;3.80;;;;;;;;;;1793118;80;21055;-67
2022/03/09 13:14:37;;;;;;;5.10;3.20;;;;;;;;;;1792976;80;21528;-68
2022/03/09 13:17:04;;;;;;;4.92;3.35;;;;;;;;;;1793015;80;21504;-67
2022/03/09 13:19:31;;;;;;;5.58;3.27;;;;;;;;;;1792917;80;20996;-67
2022/03/09 13:21:58;;;;;;;5.70;3.55;;;;;;;;;;1793024;80;21067;-68
2022/03/09 13:24:25;;;;;;;6.05;4.22;;;;;;;;;;1793097;80;21091;-68
2022/03/09 13:26:51;;;;;;;6.90;4.90;;;;;;;;;;1793161;80;21142;-68
2022/03/09 13:29:20;;;;;;;8.23;4.55;;;;;;;;;;1792583;80;21670;-68
2022/03/09 13:31:52;;;;;;;7.53;4.30;;;;;;;;;;1792984;80;21020;-69
2022/03/09 13:34:20;;;;;;;4.50;3.58;;;;;;;;;;1792828;80;21496;-68
2022/03/09 13:36:52;;;;;;;4.95;3.35;;;;;;;;;;1792143;80;21071;-68
2022/03/09 13:39:16;;;;;;;5.95;3.95;;;;;;;;;;1762079;80;21587;-69
2022/03/09 13:41:43;;;;;;;4.87;3.08;;;;;;;;;;1793049;80;21075;-70
2022/03/09 13:44:30;;;;;;;5.10;3.20;;;;;;;;;;1792641;80;21064;-69
2022/03/09 13:47:01;;;;;;;5.00;2.85;;;;;;;;;;1786904;80;21048;-69
2022/03/09 13:49:28;;;;;;;5.25;3.37;;;;;;;;;;1783809;80;21056;-68
2022/03/09 13:51:54;;;;;;;5.97;3.62;;;;;;;;;;1756621;80;21573;-69
2022/03/09 13:54:21;;;;;;;6.08;3.55;;;;;;;;;;1784816;80;21079;-69
2022/03/09 13:56:57;;;;;;;4.10;2.60;;;;;;;;;;1784860;80;21588;-70
2022/03/09 13:59:39;;;;;;;4.10;2.90;;;;;;;;;;1784180;80;21104;-69
2022/03/09 14:02:19;;;;;;;5.70;3.63;;;;;;;;;;1784964;80;21076;-70
2022/03/09 14:04:46;;;;;;;7.25;3.85;;;;;;;;;;1784600;80;21084;-68
2022/03/09 14:07:13;;;;;;;7.50;3.70;;;;;;;;;;1784644;80;21025;-68
2022/03/09 14:09:41;;;;;;;7.45;4.10;;;;;;;;;;1784376;80;21044;-68
2022/03/09 14:12:15;;;;;;;7.87;4.62;;;;;;;;;;1784806;80;21009;-68
2022/03/09 14:14:43;;;;;;;6.62;3.90;;;;;;;;;;1784217;80;21563;-69
2022/03/09 14:17:09;;;;;;;6.47;4.15;;;;;;;;;;1784814;80;21024;-69
2022/03/09 14:19:35;;;;;;;7.87;4.45;;;;;;;;;;1784870;80;20980;-69
2022/03/09 14:22:03;;;;;;;5.85;3.95;;;;;;;;;;1784569;80;21068;-69
2022/03/09 14:24:30;;;;;;;6.75;4.17;;;;;;;;;;1784606;80;21318;-69
2022/03/09 14:26:58;;;;;;;7.78;3.45;;;;;;;;;;1784488;80;21099;-69
2022/03/09 14:29:27;;;;;;;7.65;3.40;;;;;;;;;;1784400;80;21100;-69
2022/03/09 14:31:53;;;;;;;6.33;3.90;;;;;;;;;;1784805;80;20977;-68
2022/03/09 14:34:20;;;;;;;6.28;3.83;;;;;;;;;;1784484;80;21063;-69
2022/03/09 14:36:47;;;;;;;5.40;3.70;;;;;;;;;;1784511;80;21060;-69
2022/03/09 14:39:13;;;;;;;7.83;4.50;;;;;;;;;;1784636;80;21528;-69
2022/03/09 14:41:40;;;;;;;6.12;3.80;;;;;;;;;;1784449;80;21584;-69
2022/03/09 14:44:07;;;;;;;6.53;3.70;;;;;;;;;;1784237;80;21088;-69
2022/03/09 14:46:36;;;;;;;6.65;3.87;;;;;;;;;;1781635;80;21068;-69
2022/03/09 14:49:02;;;;;;;8.60;4.28;;;;;;;;;;1778842;81;21556;-70
2022/03/09 14:51:29;;;;;;;5.75;3.50;;;;;;;;;;1778887;81;21384;-69
2022/03/09 14:53:56;;;;;;;4.83;3.37;;;;;;;;;;1778633;81;21072;-69
2022/03/09 14:56:23;;;;;;;6.08;3.30;;;;;;;;;;1778818;81;21029;-69
2022/03/09 14:58:50;;;;;;;4.70;3.20;;;;;;;;;;1778589;80;21032;-69
2022/03/09 15:01:16;;;;;;;5.47;3.25;;;;;;;;;;1778781;81;21504;-70